createdAt,value
2022-12-25T00:00:32.409Z,173.57
2022-12-25T00:05:35.054Z,179.30
2022-12-25T00:10:44.685Z,166.85
2022-12-25T00:15:48.465Z,176.02
2022-12-25T00:21:05.374Z,185.88
2022-12-25T00:26:10.685Z,204.25
2022-12-25T00:31:17.960Z,171.23
2022-12-25T00:36:22.388Z,182.80
2022-12-25T00:41:43.631Z,212.75
2022-12-25T00:46:47.308Z,210.10
2022-12-25T00:51:50.706Z,184.95
2022-12-25T00:56:53.894Z,172.20
2022-12-25T01:01:56.630Z,187.68
2022-12-25T01:06:59.221Z,208.98
2022-12-25T01:12:01.787Z,177.30
2022-12-25T01:17:04.589Z,202.02
2022-12-25T01:22:08.491Z,181.32
2022-12-25T01:27:13.664Z,157.63
2022-12-25T01:32:16.997Z,196.65
2022-12-25T01:37:21.129Z,184.90
2022-12-25T01:42:24.117Z,176.77
2022-12-25T01:47:26.780Z,174.30
2022-12-25T01:52:31.801Z,194.02
2022-12-25T01:57:36.573Z,190.57
2022-12-25T02:07:42.819Z,186.95
2022-12-25T02:12:47.625Z,171.35
2022-12-25T02:18:07.745Z,184.50
2022-12-25T02:23:40.740Z,193.50
2022-12-25T02:29:10.594Z,199.25
2022-12-25T02:34:53.057Z,180.57
2022-12-25T02:40:15.999Z,180.60
2022-12-25T02:45:45.038Z,182.15
2022-12-25T02:51:08.220Z,206.45
2022-12-25T02:56:50.075Z,182.27
2022-12-25T03:02:12.393Z,175.85
2022-12-25T03:07:22.462Z,171.15
2022-12-25T03:12:40.172Z,199.60
2022-12-25T03:17:42.827Z,198.90
2022-12-25T03:23:04.706Z,185.80
2022-12-25T03:28:07.196Z,226.82
2022-12-25T03:34:03.598Z,208.45
2022-12-25T03:39:53.733Z,194.30
2022-12-25T03:45:26.951Z,180.23
2022-12-25T03:51:03.780Z,164.65
2022-12-25T03:56:25.520Z,173.07
2022-12-25T04:01:46.749Z,174.55
2022-12-25T04:07:12.009Z,168.55
2022-12-25T04:12:33.228Z,197.32
2022-12-25T04:17:54.393Z,202.40
2022-12-25T04:23:15.720Z,197.82
2022-12-25T04:28:36.896Z,209.52
2022-12-25T04:33:58.139Z,198.40
2022-12-25T04:39:00.845Z,201.13
2022-12-25T04:44:03.546Z,196.10
2022-12-25T04:49:06.249Z,193.05
2022-12-25T04:54:10.371Z,185.27
2022-12-25T04:59:13.025Z,172.03
2022-12-25T05:04:15.590Z,174.45
2022-12-25T05:09:18.315Z,156.30
2022-12-25T05:14:21.573Z,158.45
2022-12-25T05:19:24.976Z,155.23
2022-12-25T05:24:29.041Z,145.43
2022-12-25T05:29:32.618Z,197.40
2022-12-25T05:34:35.156Z,149.35
2022-12-25T05:39:37.902Z,157.80
2022-12-25T05:44:40.483Z,149.73
2022-12-25T05:49:43.554Z,158.63
2022-12-25T05:54:46.042Z,153.70
2022-12-25T05:59:48.693Z,149.95
2022-12-25T06:04:51.403Z,156.63
2022-12-25T06:09:54.960Z,143.27
2022-12-25T06:14:57.650Z,146.85
2022-12-25T06:20:00.491Z,149.23
2022-12-25T06:25:03.065Z,143.13
2022-12-25T06:30:06.517Z,127.35
2022-12-25T06:35:09.307Z,131.43
2022-12-25T06:40:13.267Z,139.23
2022-12-25T06:45:15.897Z,148.52
2022-12-25T06:50:20.241Z,148.95
2022-12-25T06:55:22.778Z,157.05
2022-12-25T07:00:25.498Z,131.45
2022-12-25T07:05:28.319Z,144.02
2022-12-25T07:10:30.900Z,125.65
2022-12-25T07:15:33.453Z,130.70
2022-12-25T07:20:37.022Z,121.55
2022-12-25T07:26:01.779Z,141.32
2022-12-25T07:31:06.953Z,142.50
2022-12-25T07:36:13.085Z,135.18
2022-12-25T07:41:15.938Z,143.25
2022-12-25T07:46:18.631Z,146.75
2022-12-25T07:51:21.246Z,144.95
2022-12-25T07:56:26.228Z,135.63
2022-12-25T08:01:29.872Z,145.35
2022-12-25T08:06:34.905Z,151.75
2022-12-25T08:11:38.594Z,142.48
2022-12-25T08:16:42.300Z,131.90
2022-12-25T08:21:45.013Z,145.70
2022-12-25T08:26:47.640Z,141.80
2022-12-25T08:31:50.283Z,159.52
2022-12-25T08:36:53.965Z,146.52
2022-12-25T08:41:59.148Z,145.82
2022-12-25T08:47:01.780Z,134.77
2022-12-25T08:52:04.526Z,142.55
2022-12-25T08:57:07.037Z,129.35
2022-12-25T09:02:12.278Z,143.60
2022-12-25T09:07:15.235Z,134.23
2022-12-25T09:12:18.463Z,135.23
2022-12-25T09:17:27.373Z,148.15
2022-12-25T09:22:29.974Z,145.30
2022-12-25T09:27:32.524Z,146.18
2022-12-25T09:32:35.162Z,134.75
2022-12-25T09:37:38.598Z,150.32
2022-12-25T09:42:42.057Z,144.18
2022-12-25T09:47:47.165Z,141.60
2022-12-25T09:53:10.508Z,117.95
2022-12-25T09:58:15.138Z,122.23
2022-12-25T10:03:52.451Z,144.40
2022-12-25T10:09:20.431Z,140.82
2022-12-25T10:14:43.849Z,129.18
2022-12-25T10:20:15.838Z,132.47
2022-12-25T10:25:22.381Z,133.77
2022-12-25T10:30:27.838Z,139.30
2022-12-25T10:35:32.870Z,129.05
2022-12-25T10:40:46.139Z,147.63
2022-12-25T10:45:50.603Z,152.70
2022-12-25T10:50:53.324Z,147.38
2022-12-25T10:56:04.679Z,136.07
2022-12-25T11:01:08.543Z,144.63
2022-12-25T11:06:32.392Z,143.70
2022-12-25T11:11:37.568Z,146.98
2022-12-25T11:16:41.077Z,135.60
2022-12-25T11:21:51.565Z,133.75
2022-12-25T11:27:39.076Z,150.90
2022-12-25T11:32:45.434Z,131.80
2022-12-25T11:37:50.583Z,142.85
2022-12-25T11:42:54.678Z,143.55
2022-12-25T11:48:24.665Z,129.63
2022-12-25T11:53:49.643Z,138.20
2022-12-25T11:59:01.041Z,127.15
2022-12-25T12:04:31.046Z,122.35
2022-12-25T12:10:10.719Z,127.05
2022-12-25T12:15:49.855Z,143.90
2022-12-25T12:21:02.524Z,133.57
2022-12-25T12:26:05.461Z,121.80
2022-12-25T12:31:08.326Z,124.90
2022-12-25T12:36:14.583Z,116.10
2022-12-25T12:41:18.200Z,144.13
2022-12-25T12:46:31.601Z,133.63
2022-12-25T12:51:36.420Z,149.02
2022-12-25T12:56:38.928Z,156.70
2022-12-25T13:02:08.220Z,131.60
2022-12-25T13:07:18.239Z,180.55
2022-12-25T13:12:23.057Z,165.02
2022-12-25T13:17:27.150Z,159.27
2022-12-25T13:22:34.784Z,162.05
2022-12-25T13:27:37.385Z,175.68
2022-12-25T13:32:41.902Z,178.18
2022-12-25T13:37:45.026Z,162.95
2022-12-25T13:42:50.237Z,201.88
2022-12-25T13:47:55.477Z,188.43
2022-12-25T13:53:12.779Z,185.77
2022-12-25T13:58:23.126Z,203.15
2022-12-25T14:03:46.055Z,183.68
2022-12-25T14:08:49.086Z,204.25
2022-12-25T14:13:57.003Z,190.00
2022-12-25T14:19:22.642Z,191.48
2022-12-25T14:24:26.891Z,196.80
2022-12-25T14:29:39.663Z,191.60
2022-12-25T14:34:46.227Z,187.45
2022-12-25T14:40:05.128Z,221.93
2022-12-25T14:45:35.361Z,218.15
2022-12-25T14:50:41.553Z,201.93
2022-12-25T14:55:51.988Z,204.45
2022-12-25T15:00:59.957Z,229.60
2022-12-25T15:06:05.245Z,230.98
2022-12-25T15:11:09.191Z,226.63
2022-12-25T15:16:17.965Z,237.40
2022-12-25T15:21:28.929Z,234.40
2022-12-25T15:26:37.848Z,234.70
2022-12-25T15:31:42.176Z,235.75
2022-12-25T15:36:44.842Z,232.05
2022-12-25T15:42:08.157Z,206.23
2022-12-25T15:47:12.985Z,229.25
2022-12-25T15:52:17.367Z,227.20
2022-12-25T15:57:22.283Z,208.88
2022-12-25T16:02:26.184Z,217.77
2022-12-25T16:07:31.954Z,216.50
2022-12-25T16:12:34.500Z,206.70
2022-12-25T16:17:37.090Z,236.30
2022-12-25T16:22:40.131Z,226.38
2022-12-25T16:27:43.971Z,233.13
2022-12-25T16:32:50.731Z,232.13
2022-12-25T16:37:53.466Z,268.10
2022-12-25T16:42:56.517Z,282.15
2022-12-25T16:47:59.086Z,253.35
2022-12-25T16:53:01.976Z,331.23
2022-12-25T16:58:06.550Z,265.85
2022-12-25T17:03:10.163Z,234.30
2022-12-25T17:08:12.958Z,259.60
2022-12-25T17:13:15.481Z,262.15
2022-12-25T17:18:22.192Z,281.33
2022-12-25T17:23:24.775Z,250.23
2022-12-25T17:28:27.520Z,295.88
2022-12-25T17:33:30.759Z,271.17
2022-12-25T17:38:34.682Z,330.48
2022-12-25T17:43:40.230Z,324.77
2022-12-25T17:48:43.218Z,383.38
2022-12-25T17:53:48.037Z,339.08
2022-12-25T17:58:54.955Z,307.17
2022-12-25T18:03:59.793Z,423.33
2022-12-25T18:09:02.864Z,394.98
2022-12-25T18:14:07.085Z,488.98
2022-12-25T18:19:28.347Z,301.80
2022-12-25T18:24:31.140Z,577.15
2022-12-25T18:29:35.255Z,519.85
2022-12-25T18:34:41.054Z,473.25
2022-12-25T18:39:44.822Z,528.50
2022-12-25T18:44:48.498Z,377.63
2022-12-25T18:49:51.386Z,513.37
2022-12-25T18:54:54.469Z,397.52
2022-12-25T18:59:57.525Z,433.20
2022-12-25T19:10:05.544Z,498.63
2022-12-25T19:15:08.614Z,543.87
2022-12-25T19:20:11.832Z,403.70
2022-12-25T19:25:14.427Z,503.42
2022-12-25T19:30:20.734Z,500.75
2022-12-25T19:35:23.605Z,456.98
2022-12-25T19:40:27.520Z,607.13
2022-12-25T19:45:30.590Z,465.30
2022-12-25T19:50:33.684Z,709.28
2022-12-25T19:55:36.213Z,541.78
2022-12-25T20:00:40.517Z,383.25
2022-12-25T20:05:45.469Z,457.67
2022-12-25T20:10:48.342Z,477.95
2022-12-25T20:15:51.252Z,677.78
2022-12-25T20:21:09.657Z,395.60
2022-12-25T20:26:13.999Z,553.70
2022-12-25T20:31:28.561Z,437.42
2022-12-25T20:36:36.673Z,402.85
2022-12-25T20:41:40.956Z,455.30
2022-12-25T20:46:46.018Z,433.15
2022-12-25T20:51:48.801Z,409.17
2022-12-25T20:56:52.898Z,445.95
2022-12-25T21:01:59.163Z,386.50
2022-12-25T21:07:03.128Z,428.88
2022-12-25T21:12:07.364Z,403.13
2022-12-25T21:17:10.538Z,371.88
2022-12-25T21:22:13.291Z,439.25
2022-12-25T21:27:16.025Z,393.90
2022-12-25T21:32:38.128Z,448.75
2022-12-25T21:37:40.727Z,471.17
2022-12-25T21:42:43.446Z,426.88
2022-12-25T21:48:02.543Z,357.88
2022-12-25T21:53:06.359Z,397.02
2022-12-25T21:58:09.004Z,371.60
2022-12-25T22:03:11.645Z,378.13
2022-12-25T22:08:14.237Z,374.48
2022-12-25T22:13:35.394Z,360.17
2022-12-25T22:18:56.812Z,357.10
2022-12-25T22:24:01.887Z,343.50
2022-12-25T22:34:08.486Z,287.63
2022-12-25T22:39:11.060Z,246.10
2022-12-25T22:44:18.011Z,240.52
2022-12-25T22:49:21.162Z,306.17
2022-12-25T22:54:24.692Z,262.48
2022-12-25T22:59:27.202Z,216.13
2022-12-25T23:04:30.119Z,278.60
2022-12-25T23:09:32.682Z,235.02
2022-12-25T23:14:41.129Z,246.63
2022-12-25T23:20:02.246Z,234.35
2022-12-25T23:25:31.268Z,236.07
2022-12-25T23:30:34.181Z,263.90
2022-12-25T23:35:36.799Z,224.55
2022-12-25T23:40:39.345Z,247.82
2022-12-25T23:45:42.099Z,242.45
2022-12-25T23:50:44.663Z,235.00
2022-12-25T23:55:53.499Z,231.60
